sensor_id;sensor_type;location;lat;lon;timestamp;P1;durP1;ratioP1;P2;durP2;ratioP2
31378;SDS011;61664;48.112;11.662;2022-09-17T00:01:26;3.22;;;2.92;;
31378;SDS011;61664;48.112;11.662;2022-09-17T00:03:55;3.75;;;3.00;;
31378;SDS011;61664;48.112;11.662;2022-09-17T00:06:30;3.10;;;2.90;;
31378;SDS011;61664;48.112;11.662;2022-09-17T00:09:00;3.60;;;3.30;;
31378;SDS011;61664;48.112;11.662;2022-09-17T00:11:30;3.17;;;2.90;;
31378;SDS011;61664;48.112;11.662;2022-09-17T00:14:01;4.95;;;2.80;;
31378;SDS011;61664;48.112;11.662;2022-09-17T00:16:30;3.03;;;2.83;;
31378;SDS011;61664;48.112;11.662;2022-09-17T00:19:12;2.95;;;2.75;;
31378;SDS011;61664;48.112;11.662;2022-09-17T00:21:43;3.10;;;2.90;;
31378;SDS011;61664;48.112;11.662;2022-09-17T00:24:11;3.00;;;2.80;;
31378;SDS011;61664;48.112;11.662;2022-09-17T00:26:40;4.60;;;2.60;;
31378;SDS011;61664;48.112;11.662;2022-09-17T00:29:07;3.00;;;2.80;;
31378;SDS011;61664;48.112;11.662;2022-09-17T00:31:35;2.50;;;2.20;;
31378;SDS011;61664;48.112;11.662;2022-09-17T00:34:03;2.45;;;2.25;;
31378;SDS011;61664;48.112;11.662;2022-09-17T00:36:35;2.13;;;2.03;;
31378;SDS011;61664;48.112;11.662;2022-09-17T00:39:04;1.70;;;1.60;;
31378;SDS011;61664;48.112;11.662;2022-09-17T00:41:35;2.25;;;2.15;;
31378;SDS011;61664;48.112;11.662;2022-09-17T00:49:56;1.50;;;1.40;;
31378;SDS011;61664;48.112;11.662;2022-09-17T00:52:36;1.55;;;1.45;;
31378;SDS011;61664;48.112;11.662;2022-09-17T00:55:12;1.42;;;1.33;;
31378;SDS011;61664;48.112;11.662;2022-09-17T00:57:47;1.17;;;1.08;;
31378;SDS011;61664;48.112;11.662;2022-09-17T01:00:17;1.33;;;0.95;;
31378;SDS011;61664;48.112;11.662;2022-09-17T01:02:45;2.78;;;0.90;;
31378;SDS011;61664;48.112;11.662;2022-09-17T01:05:12;1.05;;;1.00;;
31378;SDS011;61664;48.112;11.662;2022-09-17T01:07:43;1.13;;;1.02;;
31378;SDS011;61664;48.112;11.662;2022-09-17T01:10:34;1.15;;;1.00;;
31378;SDS011;61664;48.112;11.662;2022-09-17T01:45:16;0.98;;;0.90;;
31378;SDS011;61664;48.112;11.662;2022-09-17T01:48:01;1.60;;;1.15;;
31378;SDS011;61664;48.112;11.662;2022-09-17T01:50:46;1.73;;;1.05;;
31378;SDS011;61664;48.112;11.662;2022-09-17T01:53:24;1.27;;;1.00;;
31378;SDS011;61664;48.112;11.662;2022-09-17T01:55:59;1.33;;;1.23;;
31378;SDS011;61664;48.112;11.662;2022-09-17T01:58:31;1.10;;;1.00;;
31378;SDS011;61664;48.112;11.662;2022-09-17T02:01:07;1.05;;;1.05;;
31378;SDS011;61664;48.112;11.662;2022-09-17T02:03:52;1.65;;;1.00;;
31378;SDS011;61664;48.112;11.662;2022-09-17T02:06:30;3.08;;;0.85;;
31378;SDS011;61664;48.112;11.662;2022-09-17T02:09:11;2.00;;;1.90;;
31378;SDS011;61664;48.112;11.662;2022-09-17T02:11:50;1.00;;;1.00;;
31378;SDS011;61664;48.112;11.662;2022-09-17T02:14:27;1.60;;;1.50;;
31378;SDS011;61664;48.112;11.662;2022-09-17T02:17:04;1.50;;;1.40;;
31378;SDS011;61664;48.112;11.662;2022-09-17T02:19:40;1.20;;;1.17;;
31378;SDS011;61664;48.112;11.662;2022-09-17T02:28:02;0.90;;;0.73;;
31378;SDS011;61664;48.112;11.662;2022-09-17T02:30:40;0.70;;;0.70;;
31378;SDS011;61664;48.112;11.662;2022-09-17T02:33:08;0.80;;;0.80;;
31378;SDS011;61664;48.112;11.662;2022-09-17T02:35:40;0.90;;;0.80;;
31378;SDS011;61664;48.112;11.662;2022-09-17T02:38:09;0.82;;;0.70;;
31378;SDS011;61664;48.112;11.662;2022-09-17T02:40:40;0.80;;;0.70;;
31378;SDS011;61664;48.112;11.662;2022-09-17T02:46:21;0.80;;;0.80;;
31378;SDS011;61664;48.112;11.662;2022-09-17T02:55:01;1.02;;;0.60;;
31378;SDS011;61664;48.112;11.662;2022-09-17T02:58:11;0.70;;;0.70;;
31378;SDS011;61664;48.112;11.662;2022-09-17T03:00:49;1.02;;;0.93;;
31378;SDS011;61664;48.112;11.662;2022-09-17T03:06:05;1.05;;;0.68;;
31378;SDS011;61664;48.112;11.662;2022-09-17T03:08:36;0.43;;;0.43;;
31378;SDS011;61664;48.112;11.662;2022-09-17T03:11:07;0.68;;;0.60;;
31378;SDS011;61664;48.112;11.662;2022-09-17T03:16:05;0.60;;;0.60;;
31378;SDS011;61664;48.112;11.662;2022-09-17T03:18:33;0.50;;;0.50;;
31378;SDS011;61664;48.112;11.662;2022-09-17T03:21:00;0.40;;;0.40;;
31378;SDS011;61664;48.112;11.662;2022-09-17T03:23:27;0.52;;;0.52;;
31378;SDS011;61664;48.112;11.662;2022-09-17T03:25:54;0.70;;;0.50;;
31378;SDS011;61664;48.112;11.662;2022-09-17T03:28:21;1.40;;;0.95;;
31378;SDS011;61664;48.112;11.662;2022-09-17T03:30:48;0.93;;;0.40;;
31378;SDS011;61664;48.112;11.662;2022-09-17T03:33:14;0.95;;;0.70;;
31378;SDS011;61664;48.112;11.662;2022-09-17T03:35:42;3.10;;;0.50;;
31378;SDS011;61664;48.112;11.662;2022-09-17T03:38:10;2.35;;;0.70;;
31378;SDS011;61664;48.112;11.662;2022-09-17T03:40:38;0.60;;;0.55;;
31378;SDS011;61664;48.112;11.662;2022-09-17T03:43:05;1.30;;;0.40;;
31378;SDS011;61664;48.112;11.662;2022-09-17T03:45:32;0.32;;;0.32;;
31378;SDS011;61664;48.112;11.662;2022-09-17T03:47:59;0.52;;;0.45;;
31378;SDS011;61664;48.112;11.662;2022-09-17T03:50:26;1.40;;;0.52;;
31378;SDS011;61664;48.112;11.662;2022-09-17T03:52:53;0.80;;;0.63;;
31378;SDS011;61664;48.112;11.662;2022-09-17T03:55:20;0.60;;;0.60;;
31378;SDS011;61664;48.112;11.662;2022-09-17T03:57:47;0.50;;;0.50;;
31378;SDS011;61664;48.112;11.662;2022-09-17T04:00:14;1.52;;;0.70;;
31378;SDS011;61664;48.112;11.662;2022-09-17T04:02:42;1.30;;;0.60;;
31378;SDS011;61664;48.112;11.662;2022-09-17T04:05:10;1.33;;;1.10;;
31378;SDS011;61664;48.112;11.662;2022-09-17T04:07:38;0.90;;;0.60;;
31378;SDS011;61664;48.112;11.662;2022-09-17T04:10:06;0.50;;;0.50;;
31378;SDS011;61664;48.112;11.662;2022-09-17T04:12:34;0.57;;;0.55;;
31378;SDS011;61664;48.112;11.662;2022-09-17T04:15:01;0.93;;;0.50;;
31378;SDS011;61664;48.112;11.662;2022-09-17T04:17:29;1.00;;;0.60;;
31378;SDS011;61664;48.112;11.662;2022-09-17T04:19:56;0.63;;;0.60;;
31378;SDS011;61664;48.112;11.662;2022-09-17T04:22:24;0.50;;;0.50;;
31378;SDS011;61664;48.112;11.662;2022-09-17T04:24:51;0.50;;;0.50;;
31378;SDS011;61664;48.112;11.662;2022-09-17T04:27:18;1.85;;;0.60;;
31378;SDS011;61664;48.112;11.662;2022-09-17T04:29:47;0.63;;;0.63;;
31378;SDS011;61664;48.112;11.662;2022-09-17T04:32:15;0.98;;;0.75;;
31378;SDS011;61664;48.112;11.662;2022-09-17T04:34:41;0.95;;;0.95;;
31378;SDS011;61664;48.112;11.662;2022-09-17T04:37:08;0.80;;;0.70;;
31378;SDS011;61664;48.112;11.662;2022-09-17T04:39:35;0.75;;;0.75;;
31378;SDS011;61664;48.112;11.662;2022-09-17T04:42:03;1.77;;;1.05;;
31378;SDS011;61664;48.112;11.662;2022-09-17T04:44:30;1.60;;;0.80;;
31378;SDS011;61664;48.112;11.662;2022-09-17T04:46:57;0.98;;;0.80;;
31378;SDS011;61664;48.112;11.662;2022-09-17T04:49:23;3.13;;;0.90;;
31378;SDS011;61664;48.112;11.662;2022-09-17T04:54:21;0.98;;;0.80;;
31378;SDS011;61664;48.112;11.662;2022-09-17T04:56:48;0.75;;;0.75;;
31378;SDS011;61664;48.112;11.662;2022-09-17T04:59:16;1.00;;;0.85;;
31378;SDS011;61664;48.112;11.662;2022-09-17T05:01:43;1.35;;;0.90;;
31378;SDS011;61664;48.112;11.662;2022-09-17T05:04:10;1.73;;;1.35;;
31378;SDS011;61664;48.112;11.662;2022-09-17T05:06:37;1.25;;;0.80;;
31378;SDS011;61664;48.112;11.662;2022-09-17T05:09:04;1.10;;;0.98;;
31378;SDS011;61664;48.112;11.662;2022-09-17T05:11:30;2.83;;;1.50;;
31378;SDS011;61664;48.112;11.662;2022-09-17T05:13:58;1.38;;;1.27;;
31378;SDS011;61664;48.112;11.662;2022-09-17T05:16:25;1.33;;;0.82;;
31378;SDS011;61664;48.112;11.662;2022-09-17T05:18:52;2.08;;;0.80;;
31378;SDS011;61664;48.112;11.662;2022-09-17T05:21:19;1.33;;;0.73;;
31378;SDS011;61664;48.112;11.662;2022-09-17T05:23:46;4.82;;;1.13;;
31378;SDS011;61664;48.112;11.662;2022-09-17T05:26:13;3.20;;;1.23;;
31378;SDS011;61664;48.112;11.662;2022-09-17T05:28:40;3.00;;;1.10;;
31378;SDS011;61664;48.112;11.662;2022-09-17T05:31:07;1.35;;;1.00;;
31378;SDS011;61664;48.112;11.662;2022-09-17T05:33:34;1.35;;;0.90;;
31378;SDS011;61664;48.112;11.662;2022-09-17T05:36:01;0.80;;;0.80;;
31378;SDS011;61664;48.112;11.662;2022-09-17T05:38:28;3.50;;;0.77;;
31378;SDS011;61664;48.112;11.662;2022-09-17T05:40:55;2.30;;;0.60;;
31378;SDS011;61664;48.112;11.662;2022-09-17T05:43:25;3.35;;;1.15;;
31378;SDS011;61664;48.112;11.662;2022-09-17T05:45:51;0.70;;;0.60;;
31378;SDS011;61664;48.112;11.662;2022-09-17T05:48:19;1.55;;;0.73;;
31378;SDS011;61664;48.112;11.662;2022-09-17T05:50:47;0.65;;;0.60;;
31378;SDS011;61664;48.112;11.662;2022-09-17T05:53:14;2.35;;;0.82;;
31378;SDS011;61664;48.112;11.662;2022-09-17T05:55:41;5.03;;;1.70;;
31378;SDS011;61664;48.112;11.662;2022-09-17T05:58:14;0.90;;;0.90;;
31378;SDS011;61664;48.112;11.662;2022-09-17T06:00:44;2.40;;;0.80;;
31378;SDS011;61664;48.112;11.662;2022-09-17T06:03:15;1.55;;;0.70;;
31378;SDS011;61664;48.112;11.662;2022-09-17T06:05:52;1.38;;;0.70;;
31378;SDS011;61664;48.112;11.662;2022-09-17T06:08:23;2.55;;;0.73;;
31378;SDS011;61664;48.112;11.662;2022-09-17T06:10:53;1.23;;;0.80;;
31378;SDS011;61664;48.112;11.662;2022-09-17T06:13:26;0.73;;;0.70;;
31378;SDS011;61664;48.112;11.662;2022-09-17T06:15:57;3.88;;;0.80;;
31378;SDS011;61664;48.112;11.662;2022-09-17T06:18:26;2.58;;;0.80;;
31378;SDS011;61664;48.112;11.662;2022-09-17T06:20:58;1.75;;;0.88;;
31378;SDS011;61664;48.112;11.662;2022-09-17T06:23:31;1.52;;;0.73;;
31378;SDS011;61664;48.112;11.662;2022-09-17T06:26:00;1.20;;;1.10;;
31378;SDS011;61664;48.112;11.662;2022-09-17T06:28:29;1.08;;;0.98;;
31378;SDS011;61664;48.112;11.662;2022-09-17T06:31:00;0.80;;;0.80;;
31378;SDS011;61664;48.112;11.662;2022-09-17T06:33:30;2.22;;;0.90;;
31378;SDS011;61664;48.112;11.662;2022-09-17T06:35:59;2.00;;;0.70;;
31378;SDS011;61664;48.112;11.662;2022-09-17T06:38:34;1.33;;;0.63;;
31378;SDS011;61664;48.112;11.662;2022-09-17T06:41:01;1.58;;;1.02;;
31378;SDS011;61664;48.112;11.662;2022-09-17T06:43:29;2.17;;;0.90;;
31378;SDS011;61664;48.112;11.662;2022-09-17T06:45:58;3.65;;;0.98;;
31378;SDS011;61664;48.112;11.662;2022-09-17T06:48:27;1.30;;;0.90;;
31378;SDS011;61664;48.112;11.662;2022-09-17T06:51:00;2.35;;;1.02;;
31378;SDS011;61664;48.112;11.662;2022-09-17T06:53:30;1.52;;;0.70;;
31378;SDS011;61664;48.112;11.662;2022-09-17T06:55:57;1.58;;;0.98;;
31378;SDS011;61664;48.112;11.662;2022-09-17T06:58:31;1.70;;;0.80;;
31378;SDS011;61664;48.112;11.662;2022-09-17T07:01:02;1.55;;;0.73;;
31378;SDS011;61664;48.112;11.662;2022-09-17T07:03:31;4.13;;;1.17;;
31378;SDS011;61664;48.112;11.662;2022-09-17T07:05:59;4.60;;;1.92;;
31378;SDS011;61664;48.112;11.662;2022-09-17T07:08:26;3.15;;;1.52;;
31378;SDS011;61664;48.112;11.662;2022-09-17T07:10:56;5.72;;;3.40;;
31378;SDS011;61664;48.112;11.662;2022-09-17T07:13:23;5.57;;;3.30;;
31378;SDS011;61664;48.112;11.662;2022-09-17T07:15:54;6.15;;;2.33;;
31378;SDS011;61664;48.112;11.662;2022-09-17T07:18:24;1.00;;;1.00;;
31378;SDS011;61664;48.112;11.662;2022-09-17T07:20:52;2.60;;;0.98;;
31378;SDS011;61664;48.112;11.662;2022-09-17T07:23:23;2.55;;;1.00;;
31378;SDS011;61664;48.112;11.662;2022-09-17T07:25:56;3.50;;;1.00;;
31378;SDS011;61664;48.112;11.662;2022-09-17T07:28:27;2.15;;;0.90;;
31378;SDS011;61664;48.112;11.662;2022-09-17T07:30:54;2.00;;;0.70;;
31378;SDS011;61664;48.112;11.662;2022-09-17T07:33:23;6.32;;;1.30;;
31378;SDS011;61664;48.112;11.662;2022-09-17T07:35:56;3.08;;;0.77;;
31378;SDS011;61664;48.112;11.662;2022-09-17T07:38:26;2.42;;;1.10;;
31378;SDS011;61664;48.112;11.662;2022-09-17T07:40:56;2.05;;;0.80;;
31378;SDS011;61664;48.112;11.662;2022-09-17T07:43:26;1.55;;;0.77;;
31378;SDS011;61664;48.112;11.662;2022-09-17T07:45:57;3.20;;;0.68;;
31378;SDS011;61664;48.112;11.662;2022-09-17T07:48:27;2.00;;;0.82;;
31378;SDS011;61664;48.112;11.662;2022-09-17T07:50:54;2.72;;;0.90;;
31378;SDS011;61664;48.112;11.662;2022-09-17T07:53:22;3.65;;;1.15;;
31378;SDS011;61664;48.112;11.662;2022-09-17T07:55:58;3.72;;;0.52;;
31378;SDS011;61664;48.112;11.662;2022-09-17T07:58:30;3.53;;;0.98;;
31378;SDS011;61664;48.112;11.662;2022-09-17T08:01:07;3.35;;;0.60;;
31378;SDS011;61664;48.112;11.662;2022-09-17T08:03:37;1.67;;;0.63;;
31378;SDS011;61664;48.112;11.662;2022-09-17T08:08:35;0.90;;;0.57;;
31378;SDS011;61664;48.112;11.662;2022-09-17T08:11:03;2.30;;;0.70;;
31378;SDS011;61664;48.112;11.662;2022-09-17T08:13:36;2.42;;;0.90;;
31378;SDS011;61664;48.112;11.662;2022-09-17T08:16:05;1.67;;;0.60;;
31378;SDS011;61664;48.112;11.662;2022-09-17T08:18:36;1.38;;;0.45;;
31378;SDS011;61664;48.112;11.662;2022-09-17T08:21:05;1.45;;;0.55;;
31378;SDS011;61664;48.112;11.662;2022-09-17T08:23:35;4.38;;;0.80;;
31378;SDS011;61664;48.112;11.662;2022-09-17T08:26:04;2.72;;;0.70;;
31378;SDS011;61664;48.112;11.662;2022-09-17T08:28:33;2.35;;;0.70;;
31378;SDS011;61664;48.112;11.662;2022-09-17T08:31:01;3.00;;;0.60;;
31378;SDS011;61664;48.112;11.662;2022-09-17T08:33:32;2.83;;;0.80;;
31378;SDS011;61664;48.112;11.662;2022-09-17T08:36:01;1.85;;;0.63;;
31378;SDS011;61664;48.112;11.662;2022-09-17T08:38:29;3.80;;;0.70;;
31378;SDS011;61664;48.112;11.662;2022-09-17T08:46:27;1.13;;;0.50;;
31378;SDS011;61664;48.112;11.662;2022-09-17T08:57:59;1.20;;;0.60;;
31378;SDS011;61664;48.112;11.662;2022-09-17T09:00:55;4.22;;;0.70;;
31378;SDS011;61664;48.112;11.662;2022-09-17T09:07:09;0.80;;;0.63;;
31378;SDS011;61664;48.112;11.662;2022-09-17T09:09:48;2.60;;;0.98;;
31378;SDS011;61664;48.112;11.662;2022-09-17T09:12:33;3.15;;;0.60;;
31378;SDS011;61664;48.112;11.662;2022-09-17T09:15:03;1.58;;;0.60;;
31378;SDS011;61664;48.112;11.662;2022-09-17T09:17:45;2.55;;;0.57;;
31378;SDS011;61664;48.112;11.662;2022-09-17T09:23:07;1.38;;;0.50;;
31378;SDS011;61664;48.112;11.662;2022-09-17T09:25:51;3.00;;;0.60;;
31378;SDS011;61664;48.112;11.662;2022-09-17T09:31:33;1.98;;;0.80;;
31378;SDS011;61664;48.112;11.662;2022-09-17T09:34:27;2.40;;;0.93;;
31378;SDS011;61664;48.112;11.662;2022-09-17T09:37:10;2.70;;;1.15;;
31378;SDS011;61664;48.112;11.662;2022-09-17T09:39:47;2.00;;;0.60;;
31378;SDS011;61664;48.112;11.662;2022-09-17T09:44:58;3.45;;;0.60;;
31378;SDS011;61664;48.112;11.662;2022-09-17T09:50:44;2.10;;;0.77;;
31378;SDS011;61664;48.112;11.662;2022-09-17T09:53:44;3.38;;;0.77;;
31378;SDS011;61664;48.112;11.662;2022-09-17T09:59:28;1.50;;;0.90;;
31378;SDS011;61664;48.112;11.662;2022-09-17T10:01:55;2.45;;;0.75;;
31378;SDS011;61664;48.112;11.662;2022-09-17T10:04:23;4.93;;;0.90;;
31378;SDS011;61664;48.112;11.662;2022-09-17T10:07:00;3.20;;;0.60;;
31378;SDS011;61664;48.112;11.662;2022-09-17T10:09:32;1.33;;;0.68;;
31378;SDS011;61664;48.112;11.662;2022-09-17T10:12:04;1.60;;;0.40;;
31378;SDS011;61664;48.112;11.662;2022-09-17T10:14:34;2.90;;;1.00;;
31378;SDS011;61664;48.112;11.662;2022-09-17T10:22:37;1.83;;;0.95;;
31378;SDS011;61664;48.112;11.662;2022-09-17T10:25:41;1.17;;;1.02;;
31378;SDS011;61664;48.112;11.662;2022-09-17T10:28:02;1.48;;;0.80;;
31378;SDS011;61664;48.112;11.662;2022-09-17T10:30:54;1.42;;;0.82;;
31378;SDS011;61664;48.112;11.662;2022-09-17T10:33:27;3.33;;;2.17;;
31378;SDS011;61664;48.112;11.662;2022-09-17T10:36:00;3.55;;;1.38;;
31378;SDS011;61664;48.112;11.662;2022-09-17T10:41:19;2.50;;;0.80;;
31378;SDS011;61664;48.112;11.662;2022-09-17T10:43:48;3.42;;;0.82;;
31378;SDS011;61664;48.112;11.662;2022-09-17T10:54:07;1.38;;;0.90;;
31378;SDS011;61664;48.112;11.662;2022-09-17T10:56:56;2.35;;;0.88;;
31378;SDS011;61664;48.112;11.662;2022-09-17T11:02:03;2.10;;;1.00;;
31378;SDS011;61664;48.112;11.662;2022-09-17T11:08:33;1.30;;;0.70;;
31378;SDS011;61664;48.112;11.662;2022-09-17T11:11:26;2.83;;;0.98;;
31378;SDS011;61664;48.112;11.662;2022-09-17T11:26:31;2.17;;;1.17;;
31378;SDS011;61664;48.112;11.662;2022-09-17T11:41:35;1.27;;;0.70;;
31378;SDS011;61664;48.112;11.662;2022-09-17T11:44:27;1.75;;;1.15;;
31378;SDS011;61664;48.112;11.662;2022-09-17T11:47:08;0.85;;;0.60;;
31378;SDS011;61664;48.112;11.662;2022-09-17T11:49:51;1.98;;;0.70;;
31378;SDS011;61664;48.112;11.662;2022-09-17T11:53:06;1.25;;;0.70;;
31378;SDS011;61664;48.112;11.662;2022-09-17T11:55:50;0.60;;;0.50;;
31378;SDS011;61664;48.112;11.662;2022-09-17T12:04:28;2.53;;;1.65;;
31378;SDS011;61664;48.112;11.662;2022-09-17T12:07:40;3.17;;;2.10;;
31378;SDS011;61664;48.112;11.662;2022-09-17T12:16:05;1.25;;;1.00;;
31378;SDS011;61664;48.112;11.662;2022-09-17T12:19:03;1.67;;;1.20;;
31378;SDS011;61664;48.112;11.662;2022-09-17T12:21:41;2.63;;;1.30;;
31378;SDS011;61664;48.112;11.662;2022-09-17T12:24:23;1.38;;;0.95;;
31378;SDS011;61664;48.112;11.662;2022-09-17T12:26:58;1.10;;;0.93;;
31378;SDS011;61664;48.112;11.662;2022-09-17T12:32:33;0.77;;;0.70;;
31378;SDS011;61664;48.112;11.662;2022-09-17T12:41:34;1.42;;;0.68;;
31378;SDS011;61664;48.112;11.662;2022-09-17T12:59:13;0.68;;;0.68;;
31378;SDS011;61664;48.112;11.662;2022-09-17T13:01:56;0.98;;;0.90;;
31378;SDS011;61664;48.112;11.662;2022-09-17T13:04:52;1.48;;;1.00;;
31378;SDS011;61664;48.112;11.662;2022-09-17T13:14:17;1.92;;;0.50;;
31378;SDS011;61664;48.112;11.662;2022-09-17T13:17:02;3.40;;;1.10;;
31378;SDS011;61664;48.112;11.662;2022-09-17T13:19:40;7.43;;;0.93;;
31378;SDS011;61664;48.112;11.662;2022-09-17T13:22:22;1.85;;;0.75;;
31378;SDS011;61664;48.112;11.662;2022-09-17T13:25:05;1.02;;;0.90;;
31378;SDS011;61664;48.112;11.662;2022-09-17T13:27:36;2.53;;;1.38;;
31378;SDS011;61664;48.112;11.662;2022-09-17T13:30:08;2.13;;;1.52;;
31378;SDS011;61664;48.112;11.662;2022-09-17T13:37:40;3.95;;;1.30;;
31378;SDS011;61664;48.112;11.662;2022-09-17T13:40:20;2.97;;;1.13;;
31378;SDS011;61664;48.112;11.662;2022-09-17T13:45:29;2.63;;;2.42;;
31378;SDS011;61664;48.112;11.662;2022-09-17T13:48:02;2.10;;;1.73;;
31378;SDS011;61664;48.112;11.662;2022-09-17T13:50:53;2.85;;;1.45;;
31378;SDS011;61664;48.112;11.662;2022-09-17T13:53:21;2.38;;;1.20;;
31378;SDS011;61664;48.112;11.662;2022-09-17T13:55:53;2.63;;;1.50;;
31378;SDS011;61664;48.112;11.662;2022-09-17T13:58:32;2.38;;;1.10;;
31378;SDS011;61664;48.112;11.662;2022-09-17T14:03:52;4.55;;;1.63;;
31378;SDS011;61664;48.112;11.662;2022-09-17T14:08:49;1.25;;;0.90;;
31378;SDS011;61664;48.112;11.662;2022-09-17T14:13:53;0.70;;;0.55;;
31378;SDS011;61664;48.112;11.662;2022-09-17T14:22:28;0.70;;;0.40;;
31378;SDS011;61664;48.112;11.662;2022-09-17T14:24:55;0.60;;;0.50;;
31378;SDS011;61664;48.112;11.662;2022-09-17T14:30:53;0.93;;;0.40;;
31378;SDS011;61664;48.112;11.662;2022-09-17T14:33:25;1.35;;;0.38;;
31378;SDS011;61664;48.112;11.662;2022-09-17T14:36:09;1.63;;;0.60;;
31378;SDS011;61664;48.112;11.662;2022-09-17T14:38:51;0.40;;;0.30;;
31378;SDS011;61664;48.112;11.662;2022-09-17T14:41:23;0.85;;;0.30;;
31378;SDS011;61664;48.112;11.662;2022-09-17T14:44:14;0.90;;;0.60;;
31378;SDS011;61664;48.112;11.662;2022-09-17T14:47:00;0.93;;;0.43;;
31378;SDS011;61664;48.112;11.662;2022-09-17T14:49:34;1.90;;;0.60;;
31378;SDS011;61664;48.112;11.662;2022-09-17T14:52:23;1.27;;;0.50;;
31378;SDS011;61664;48.112;11.662;2022-09-17T14:57:57;1.17;;;0.50;;
31378;SDS011;61664;48.112;11.662;2022-09-17T15:00:33;1.38;;;0.68;;
31378;SDS011;61664;48.112;11.662;2022-09-17T15:03:05;0.75;;;0.57;;
31378;SDS011;61664;48.112;11.662;2022-09-17T15:08:16;1.20;;;0.55;;
31378;SDS011;61664;48.112;11.662;2022-09-17T15:10:55;0.98;;;0.65;;
31378;SDS011;61664;48.112;11.662;2022-09-17T15:13:27;0.55;;;0.45;;
31378;SDS011;61664;48.112;11.662;2022-09-17T15:16:15;2.03;;;0.70;;
31378;SDS011;61664;48.112;11.662;2022-09-17T15:30:23;1.33;;;0.40;;
31378;SDS011;61664;48.112;11.662;2022-09-17T15:32:52;0.60;;;0.47;;
31378;SDS011;61664;48.112;11.662;2022-09-17T15:35:25;0.75;;;0.50;;
31378;SDS011;61664;48.112;11.662;2022-09-17T15:37:56;0.40;;;0.40;;
31378;SDS011;61664;48.112;11.662;2022-09-17T15:40:48;1.63;;;0.40;;
31378;SDS011;61664;48.112;11.662;2022-09-17T15:45:56;0.82;;;0.40;;
31378;SDS011;61664;48.112;11.662;2022-09-17T15:48:56;2.75;;;0.43;;
31378;SDS011;61664;48.112;11.662;2022-09-17T15:54:02;0.40;;;0.30;;
31378;SDS011;61664;48.112;11.662;2022-09-17T15:56:35;0.85;;;0.60;;
31378;SDS011;61664;48.112;11.662;2022-09-17T16:01:57;1.17;;;1.08;;
31378;SDS011;61664;48.112;11.662;2022-09-17T16:09:43;1.10;;;0.70;;
31378;SDS011;61664;48.112;11.662;2022-09-17T16:12:16;3.47;;;0.90;;
31378;SDS011;61664;48.112;11.662;2022-09-17T16:14:52;0.95;;;0.90;;
31378;SDS011;61664;48.112;11.662;2022-09-17T16:22:56;1.48;;;1.38;;
31378;SDS011;61664;48.112;11.662;2022-09-17T16:25:23;1.10;;;1.00;;
31378;SDS011;61664;48.112;11.662;2022-09-17T16:27:59;1.30;;;1.20;;
31378;SDS011;61664;48.112;11.662;2022-09-17T16:33:00;1.58;;;1.48;;
31378;SDS011;61664;48.112;11.662;2022-09-17T16:35:29;1.40;;;1.20;;
31378;SDS011;61664;48.112;11.662;2022-09-17T16:37:55;3.95;;;1.58;;
31378;SDS011;61664;48.112;11.662;2022-09-17T16:40:23;1.08;;;1.02;;
31378;SDS011;61664;48.112;11.662;2022-09-17T16:42:55;0.75;;;0.70;;
31378;SDS011;61664;48.112;11.662;2022-09-17T16:47:54;2.38;;;0.70;;
31378;SDS011;61664;48.112;11.662;2022-09-17T16:50:21;0.98;;;0.80;;
31378;SDS011;61664;48.112;11.662;2022-09-17T16:52:49;1.60;;;0.85;;
31378;SDS011;61664;48.112;11.662;2022-09-17T16:55:16;1.92;;;1.73;;
31378;SDS011;61664;48.112;11.662;2022-09-17T16:57:44;1.45;;;0.80;;
31378;SDS011;61664;48.112;11.662;2022-09-17T17:00:12;1.58;;;1.23;;
31378;SDS011;61664;48.112;11.662;2022-09-17T17:02:47;1.80;;;1.70;;
31378;SDS011;61664;48.112;11.662;2022-09-17T17:05:20;1.45;;;1.23;;
31378;SDS011;61664;48.112;11.662;2022-09-17T17:07:49;0.65;;;0.65;;
31378;SDS011;61664;48.112;11.662;2022-09-17T17:10:16;2.15;;;0.68;;
31378;SDS011;61664;48.112;11.662;2022-09-17T17:12:43;0.70;;;0.70;;
31378;SDS011;61664;48.112;11.662;2022-09-17T17:15:10;1.00;;;0.40;;
31378;SDS011;61664;48.112;11.662;2022-09-17T17:17:37;0.68;;;0.50;;
31378;SDS011;61664;48.112;11.662;2022-09-17T17:20:05;0.60;;;0.60;;
31378;SDS011;61664;48.112;11.662;2022-09-17T17:22:35;2.47;;;1.40;;
31378;SDS011;61664;48.112;11.662;2022-09-17T17:25:03;1.40;;;1.05;;
31378;SDS011;61664;48.112;11.662;2022-09-17T17:27:32;2.83;;;1.70;;
31378;SDS011;61664;48.112;11.662;2022-09-17T17:29:59;3.15;;;1.77;;
31378;SDS011;61664;48.112;11.662;2022-09-17T17:32:30;1.92;;;1.38;;
31378;SDS011;61664;48.112;11.662;2022-09-17T17:35:01;2.58;;;1.42;;
31378;SDS011;61664;48.112;11.662;2022-09-17T17:37:29;2.00;;;1.00;;
31378;SDS011;61664;48.112;11.662;2022-09-17T17:39:56;1.13;;;1.02;;
31378;SDS011;61664;48.112;11.662;2022-09-17T17:42:23;2.00;;;1.30;;
31378;SDS011;61664;48.112;11.662;2022-09-17T17:44:50;1.58;;;1.00;;
31378;SDS011;61664;48.112;11.662;2022-09-17T17:47:17;1.55;;;1.35;;
31378;SDS011;61664;48.112;11.662;2022-09-17T17:49:44;4.13;;;1.95;;
31378;SDS011;61664;48.112;11.662;2022-09-17T17:52:10;2.13;;;1.40;;
31378;SDS011;61664;48.112;11.662;2022-09-17T17:54:37;1.65;;;1.25;;
31378;SDS011;61664;48.112;11.662;2022-09-17T17:57:04;1.00;;;0.88;;
31378;SDS011;61664;48.112;11.662;2022-09-17T17:59:31;1.15;;;0.88;;
31378;SDS011;61664;48.112;11.662;2022-09-17T18:01:58;0.73;;;0.70;;
31378;SDS011;61664;48.112;11.662;2022-09-17T18:04:25;1.20;;;1.13;;
31378;SDS011;61664;48.112;11.662;2022-09-17T18:06:52;1.40;;;1.10;;
31378;SDS011;61664;48.112;11.662;2022-09-17T18:09:19;1.40;;;0.70;;
31378;SDS011;61664;48.112;11.662;2022-09-17T18:11:45;1.08;;;0.90;;
31378;SDS011;61664;48.112;11.662;2022-09-17T18:14:12;0.68;;;0.57;;
31378;SDS011;61664;48.112;11.662;2022-09-17T18:16:39;0.82;;;0.60;;
31378;SDS011;61664;48.112;11.662;2022-09-17T18:19:08;0.70;;;0.60;;
31378;SDS011;61664;48.112;11.662;2022-09-17T18:21:36;1.38;;;0.47;;
31378;SDS011;61664;48.112;11.662;2022-09-17T18:24:03;0.80;;;0.65;;
31378;SDS011;61664;48.112;11.662;2022-09-17T18:26:30;0.45;;;0.30;;
31378;SDS011;61664;48.112;11.662;2022-09-17T18:28:57;1.25;;;0.63;;
31378;SDS011;61664;48.112;11.662;2022-09-17T18:31:31;1.13;;;0.70;;
31378;SDS011;61664;48.112;11.662;2022-09-17T18:34:07;0.45;;;0.45;;
31378;SDS011;61664;48.112;11.662;2022-09-17T18:36:40;1.02;;;0.80;;
31378;SDS011;61664;48.112;11.662;2022-09-17T18:39:16;0.40;;;0.40;;
31378;SDS011;61664;48.112;11.662;2022-09-17T18:42:02;0.70;;;0.40;;
31378;SDS011;61664;48.112;11.662;2022-09-17T18:44:29;0.55;;;0.55;;
31378;SDS011;61664;48.112;11.662;2022-09-17T18:46:56;0.40;;;0.32;;
31378;SDS011;61664;48.112;11.662;2022-09-17T18:49:23;1.45;;;1.30;;
31378;SDS011;61664;48.112;11.662;2022-09-17T18:51:50;1.80;;;0.70;;
31378;SDS011;61664;48.112;11.662;2022-09-17T18:54:17;0.60;;;0.40;;
31378;SDS011;61664;48.112;11.662;2022-09-17T18:56:44;0.68;;;0.50;;
31378;SDS011;61664;48.112;11.662;2022-09-17T18:59:10;2.00;;;1.27;;
31378;SDS011;61664;48.112;11.662;2022-09-17T19:01:37;4.07;;;2.67;;
31378;SDS011;61664;48.112;11.662;2022-09-17T19:04:04;1.63;;;0.88;;
31378;SDS011;61664;48.112;11.662;2022-09-17T19:06:35;0.75;;;0.65;;
31378;SDS011;61664;48.112;11.662;2022-09-17T19:09:02;1.08;;;0.82;;
31378;SDS011;61664;48.112;11.662;2022-09-17T19:11:30;0.77;;;0.60;;
31378;SDS011;61664;48.112;11.662;2022-09-17T19:14:00;3.20;;;2.10;;
31378;SDS011;61664;48.112;11.662;2022-09-17T19:16:27;2.65;;;0.90;;